Strona główna
METAR-TAF:

METAR-TAF

Lotnisko :

Praia, Republika Zielonego Przylądka

Port lotniczy Praia

Szerokość geograficzna: 14-55-27N, Długość geograficzna: 23-29-38W, wysokość: 70 m

Aktualna obserwacja pogody

Raport powstał 28 minut temu, godzina 19:00 UTC
Wiatr 18 kt od północno-północny wschód
Temperatura 21°C
Wilgotność 73%
Ciśnienie 1015 hPa
Widzialność 10 km lub więcej
Rozproszone chmury na wysokości 1600 ft
Przerywane chmury na wysokości 10000 ft

METAR: GVNP 171900Z 03018KT 9999 SCT016 BKN100 21/16 Q1015 NOSIG

czas: 18:28 (19:28 UTC)

Prognoza

Raport powstał 2 godziny i 28 minut temu, godzina 17:00 UTC
Prognoza ważna od 17 godzina 18 UTC do 18 godzina 24 UTC
Wiatr 20 kt od północno-północny wschód
Widzialność 10 km lub więcej
Rozproszone chmury na wysokości 1600 ft

TAF: GVNP 171700Z 1718/1824 03020KT 9999 SCT016

Obserwacja i prognoza pogody dla ponad 4000 lotnisk (raport METAR i TAF).

Dostępne stacje oznaczono żółtymi i czerwonymi punktami na mapie.

Najedź kursorem aby zobaczyć nazwę stacji.

Kliknij aby zobaczyć obserwacje i prognozy pogody.

Aby zmienić mapę: kliknij na zielony przycisk z czarnym krzyżykiem, aby powiększyć; na zielony przycisk z myślnikiem, aby pomniejszyć; na zielone strzałki, aby przejść do map sąsiednich.


METAR-TAF: